Time;durP1;ratioP1;P1;durP2;ratioP2;P2;SDS_P1;SDS_P2;PMS_P1;PMS_P2;Temp;Humidity;BMP_temperature;BMP_pressure;BME280_temperature;BME280_humidity;BME280_pressure;Samples;Min_cycle;Max_cycle;Signal;HPM_P1;HPM_P2
2021/11/27 00:00:40;;;;;;;7.90;4.63;;;28.40;89.50;;;;;;5084529;28;20047;-56
2021/11/27 00:03:08;;;;;;;8.85;4.82;;;28.40;90.00;;;;;;5068804;28;20021;-50
2021/11/27 00:05:37;;;;;;;7.95;4.63;;;28.40;90.10;;;;;;5062264;28;20032;-48
2021/11/27 00:08:07;;;;;;;10.38;4.65;;;28.50;90.30;;;;;;5062945;28;20364;-52
2021/11/27 00:10:46;;;;;;;7.88;4.78;;;28.50;90.40;;;;;;5064089;28;20132;-54
2021/11/27 00:13:13;;;;;;;6.93;5.00;;;28.50;90.40;;;;;;5062812;28;20059;-52
2021/11/27 00:15:50;;;;;;;10.02;4.38;;;28.50;90.50;;;;;;5063980;28;20025;-57
2021/11/27 00:18:18;;;;;;;10.63;4.75;;;28.50;90.70;;;;;;5063874;28;20013;-55
2021/11/27 00:20:49;;;;;;;7.40;5.05;;;28.50;90.90;;;;;;5064389;28;20092;-51
2021/11/27 00:23:16;;;;;;;8.82;5.57;;;28.50;90.90;;;;;;5062751;28;20024;-54
2021/11/27 00:25:44;;;;;;;7.20;4.72;;;28.50;90.90;;;;;;5063865;28;20070;-48
2021/11/27 00:28:11;;;;;;;8.35;4.53;;;28.50;90.90;;;;;;5063673;28;20067;-48
2021/11/27 00:30:42;;;;;;;8.02;3.92;;;28.50;91.00;;;;;;5064165;28;20212;-48
2021/11/27 00:33:09;;;;;;;4.40;3.75;;;28.50;91.00;;;;;;5062912;28;20178;-46
2021/11/27 00:35:36;;;;;;;5.82;4.20;;;28.50;91.00;;;;;;5062475;28;20079;-51
2021/11/27 00:38:06;;;;;;;7.93;5.07;;;28.50;91.10;;;;;;5062107;28;20025;-56
2021/11/27 00:40:36;;;;;;;11.95;5.63;;;28.50;91.10;;;;;;5062363;28;20048;-51
2021/11/27 00:43:08;;;;;;;11.98;6.88;;;28.50;91.20;;;;;;5061726;28;20059;-50
2021/11/27 00:45:45;;;;;;;11.23;7.13;;;28.50;91.20;;;;;;5062369;28;20033;-50
2021/11/27 00:48:14;;;;;;;15.18;9.00;;;28.50;91.10;;;;;;5061812;28;20020;-54
2021/11/27 00:51:02;;;;;;;8.77;6.55;;;28.50;91.10;;;;;;5063318;28;20025;-50
2021/11/27 00:53:32;;;;;;;7.95;5.47;;;28.50;91.10;;;;;;5064199;28;20247;-51
2021/11/27 00:56:10;;;;;;;8.50;4.85;;;28.50;91.20;;;;;;5062872;28;20036;-49
2021/11/27 00:58:40;;;;;;;9.70;5.18;;;28.40;91.10;;;;;;5064454;28;20356;-46
2021/11/27 01:01:21;;;;;;;7.40;5.07;;;28.50;91.10;;;;;;5064546;28;20308;-54
2021/11/27 01:03:48;;;;;;;11.93;6.75;;;28.50;91.20;;;;;;5063745;28;20020;-52
2021/11/27 01:06:24;;;;;;;9.85;5.85;;;28.50;91.10;;;;;;5063650;28;20041;-47
2021/11/27 01:08:58;;;;;;;10.55;6.13;;;28.50;91.10;;;;;;5063972;28;20031;-49
2021/11/27 01:11:34;;;;;;;7.95;5.90;;;28.50;91.20;;;;;;5064637;28;20020;-49
2021/11/27 01:14:05;;;;;;;10.18;5.00;;;28.50;91.10;;;;;;5067617;28;20201;-46
2021/11/27 01:16:40;;;;;;;10.73;5.30;;;28.50;91.20;;;;;;5065704;28;20104;-48
2021/11/27 01:19:09;;;;;;;12.07;5.43;;;28.40;91.10;;;;;;5067367;28;20025;-50
2021/11/27 01:21:51;;;;;;;7.57;5.13;;;28.40;91.10;;;;;;5067677;28;20213;-53
2021/11/27 01:24:19;;;;;;;8.68;4.13;;;28.40;91.10;;;;;;5067512;28;20033;-55
2021/11/27 01:26:47;;;;;;;7.35;4.35;;;28.50;91.20;;;;;;5066945;28;20024;-51
2021/11/27 01:29:17;;;;;;;9.23;3.90;;;28.50;91.10;;;;;;5067045;28;20112;-45
2021/11/27 01:31:46;;;;;;;10.05;4.22;;;28.40;90.90;;;;;;5067242;28;20178;-54
2021/11/27 01:34:13;;;;;;;5.05;3.22;;;28.50;90.90;;;;;;5065513;28;20040;-55
2021/11/27 01:36:40;;;;;;;15.32;3.97;;;28.50;90.90;;;;;;5068796;28;20032;-53
2021/11/27 01:39:10;;;;;;;13.02;3.53;;;28.40;91.10;;;;;;5086590;28;20036;-49
2021/11/27 01:41:41;;;;;;;12.55;3.80;;;28.30;91.30;;;;;;5084629;28;20402;-46
2021/11/27 01:44:17;;;;;;;9.27;3.10;;;28.30;91.50;;;;;;5083401;28;20039;-46
2021/11/27 01:46:47;;;;;;;10.23;3.53;;;28.20;91.60;;;;;;5075754;28;20253;-44
2021/11/27 01:49:17;;;;;;;9.43;3.03;;;28.10;91.60;;;;;;5064898;28;20025;-53
2021/11/27 01:51:44;;;;;;;8.00;3.40;;;28.20;91.60;;;;;;5081134;28;20084;-44
2021/11/27 01:54:12;;;;;;;5.53;3.10;;;28.10;91.70;;;;;;5065395;28;20025;-44
2021/11/27 01:56:43;;;;;;;9.00;3.28;;;28.10;92.00;;;;;;5067341;28;20045;-47
2021/11/27 01:59:11;;;;;;;3.90;2.80;;;28.00;92.10;;;;;;5074976;28;20032;-44
2021/11/27 02:01:39;;;;;;;10.98;2.78;;;28.00;92.00;;;;;;5066560;28;20371;-43
2021/11/27 02:04:11;;;;;;;5.78;2.95;;;28.00;92.20;;;;;;5066217;28;20044;-44
2021/11/27 02:06:41;;;;;;;11.43;3.08;;;28.00;92.20;;;;;;5065331;28;20291;-46
2021/11/27 02:09:18;;;;;;;5.43;4.10;;;27.90;92.10;;;;;;5065445;28;20029;-47
2021/11/27 02:11:56;;;;;;;6.18;3.60;;;28.00;92.00;;;;;;5065567;28;20062;-47
2021/11/27 02:14:26;;;;;;;6.68;2.97;;;28.00;92.00;;;;;;5066430;28;20056;-49
2021/11/27 02:16:56;;;;;;;5.90;3.42;;;28.00;92.00;;;;;;5066511;28;20032;-47
2021/11/27 02:19:23;;;;;;;8.88;3.03;;;28.00;92.00;;;;;;5064558;28;20243;-45
2021/11/27 02:21:53;;;;;;;4.35;2.75;;;28.00;92.00;;;;;;5065697;28;20016;-51
2021/11/27 02:24:24;;;;;;;9.57;2.67;;;28.00;92.10;;;;;;5076062;28;20024;-47
2021/11/27 02:27:06;;;;;;;9.18;3.17;;;27.90;92.20;;;;;;5084230;28;20023;-46
2021/11/27 02:29:37;;;;;;;19.90;3.60;;;27.90;92.20;;;;;;5084665;28;20032;-49
2021/11/27 02:32:05;;;;;;;20.90;4.55;;;27.90;92.10;;;;;;5084345;28;20031;-53
2021/11/27 02:34:32;;;;;;;11.93;3.38;;;28.00;92.00;;;;;;5084528;28;20028;-50
2021/11/27 02:37:03;;;;;;;10.45;3.30;;;28.10;91.90;;;;;;5084376;28;20028;-51
2021/11/27 02:39:34;;;;;;;5.90;3.10;;;28.10;91.80;;;;;;5085773;28;20020;-56
2021/11/27 02:42:01;;;;;;;6.82;2.97;;;28.20;91.80;;;;;;5084870;28;20030;-50
2021/11/27 02:44:33;;;;;;;6.13;2.60;;;28.20;91.70;;;;;;5085711;28;20032;-52
2021/11/27 02:47:01;;;;;;;5.95;2.90;;;28.20;91.60;;;;;;5084641;28;20104;-52
2021/11/27 02:49:28;;;;;;;7.30;2.95;;;28.20;91.50;;;;;;5083248;28;20028;-51
2021/11/27 02:51:55;;;;;;;7.32;2.88;;;28.20;91.50;;;;;;5083901;28;20021;-51
2021/11/27 02:54:26;;;;;;;6.75;2.70;;;28.20;91.40;;;;;;5083445;28;20013;-54
2021/11/27 02:56:53;;;;;;;7.25;2.60;;;28.20;91.40;;;;;;5082794;28;20080;-50
2021/11/27 02:59:22;;;;;;;6.85;2.63;;;28.20;91.40;;;;;;5081955;28;20027;-51
2021/11/27 03:01:56;;;;;;;6.63;2.70;;;28.20;91.40;;;;;;5080695;28;20021;-52
2021/11/27 03:04:30;;;;;;;4.47;2.55;;;28.20;91.40;;;;;;5080765;28;20370;-49
2021/11/27 03:06:57;;;;;;;6.80;2.90;;;28.10;91.30;;;;;;5082874;28;20232;-51
2021/11/27 03:09:27;;;;;;;4.88;3.17;;;28.20;91.30;;;;;;5083862;28;20082;-52
2021/11/27 03:11:57;;;;;;;7.45;3.63;;;28.20;91.40;;;;;;5083906;28;20020;-47
2021/11/27 03:14:26;;;;;;;8.32;4.18;;;28.20;91.40;;;;;;5083904;28;20103;-47
2021/11/27 03:16:58;;;;;;;8.88;4.13;;;28.20;91.40;;;;;;5085085;28;20067;-51
2021/11/27 03:19:26;;;;;;;9.27;5.57;;;28.10;91.30;;;;;;5084946;28;20197;-47
2021/11/27 03:21:53;;;;;;;9.63;5.65;;;28.10;91.30;;;;;;5083629;28;20024;-49
2021/11/27 03:24:22;;;;;;;8.27;4.95;;;28.10;91.40;;;;;;5084766;28;20106;-52
2021/11/27 03:26:49;;;;;;;5.53;4.90;;;28.10;91.40;;;;;;5084572;28;20025;-52
2021/11/27 03:29:19;;;;;;;6.93;3.83;;;28.10;91.30;;;;;;5084533;28;20035;-52
2021/11/27 03:31:46;;;;;;;6.97;3.60;;;28.20;91.30;;;;;;5084586;28;20020;-50
2021/11/27 03:34:16;;;;;;;4.93;3.60;;;28.10;91.20;;;;;;5084048;28;20082;-55
2021/11/27 03:36:42;;;;;;;4.10;3.42;;;28.10;91.40;;;;;;5084491;28;20108;-51
2021/11/27 03:39:12;;;;;;;6.95;3.28;;;28.10;91.30;;;;;;5084706;28;20366;-46
2021/11/27 03:41:39;;;;;;;7.97;3.50;;;28.10;91.20;;;;;;5084553;28;20027;-52
2021/11/27 03:44:09;;;;;;;6.78;2.97;;;28.10;91.20;;;;;;5084546;28;20021;-48
2021/11/27 03:46:35;;;;;;;5.80;3.13;;;28.10;91.40;;;;;;5083295;28;20038;-49
2021/11/27 03:49:06;;;;;;;5.60;2.90;;;28.10;91.30;;;;;;5084316;28;20024;-51
2021/11/27 03:51:33;;;;;;;6.00;3.00;;;28.10;91.30;;;;;;5084160;28;20012;-51
2021/11/27 03:54:02;;;;;;;8.60;3.00;;;28.00;91.30;;;;;;5084605;28;20080;-51
2021/11/27 03:56:29;;;;;;;4.03;2.97;;;28.10;91.30;;;;;;5084398;28;20020;-47
2021/11/27 03:59:00;;;;;;;10.20;2.85;;;28.00;91.30;;;;;;5083120;28;20096;-53
2021/11/27 04:01:30;;;;;;;8.30;2.83;;;28.10;91.40;;;;;;5084266;28;20020;-51
2021/11/27 04:03:58;;;;;;;6.32;2.75;;;28.00;91.40;;;;;;5084039;28;20028;-48
2021/11/27 04:06:25;;;;;;;4.18;2.83;;;28.00;91.40;;;;;;5084307;28;20025;-47
2021/11/27 04:08:54;;;;;;;6.03;3.08;;;28.00;91.40;;;;;;5084143;28;20243;-49
2021/11/27 04:11:25;;;;;;;6.82;2.72;;;27.90;91.50;;;;;;5084307;28;20056;-48
2021/11/27 04:13:54;;;;;;;10.48;2.60;;;27.90;91.50;;;;;;5084351;28;20020;-47
2021/11/27 04:16:21;;;;;;;5.45;2.53;;;27.90;91.80;;;;;;5084409;28;20049;-51
2021/11/27 04:18:48;;;;;;;6.40;3.20;;;27.90;91.60;;;;;;5083808;28;20026;-52
2021/11/27 04:21:15;;;;;;;4.38;2.63;;;27.90;91.60;;;;;;5083982;28;20044;-49
2021/11/27 04:23:42;;;;;;;5.25;2.65;;;27.90;91.70;;;;;;5083956;28;20030;-52
2021/11/27 04:26:09;;;;;;;6.55;2.50;;;27.90;91.70;;;;;;5084159;28;20185;-52
2021/11/27 04:28:38;;;;;;;7.90;2.70;;;27.90;91.60;;;;;;5083866;28;20021;-55
2021/11/27 04:31:05;;;;;;;5.05;2.60;;;27.90;91.60;;;;;;5084295;28;20205;-51
2021/11/27 04:33:41;;;;;;;6.05;2.90;;;27.90;91.70;;;;;;5083812;28;20017;-53
2021/11/27 04:36:08;;;;;;;5.72;2.30;;;27.90;91.70;;;;;;5083787;28;20037;-49
2021/11/27 04:38:35;;;;;;;5.82;2.53;;;27.90;91.60;;;;;;5083827;28;20029;-50
2021/11/27 04:41:07;;;;;;;10.00;2.88;;;27.80;91.50;;;;;;5084250;28;20032;-47
2021/11/27 04:43:37;;;;;;;6.32;2.55;;;27.80;91.50;;;;;;5083737;28;20017;-47
2021/11/27 04:46:04;;;;;;;6.15;2.85;;;27.80;91.50;;;;;;5084108;28;20031;-49
2021/11/27 04:48:41;;;;;;;;;;;;;;;;;;;;;
2021/11/27 04:51:08;;;;;;;7.65;2.65;;;27.80;91.50;;;;;;5088218;28;20043;-55
2021/11/27 04:53:35;;;;;;;5.13;2.70;;;27.80;91.40;;;;;;5087802;28;20020;-51
2021/11/27 04:56:05;;;;;;;4.90;2.40;;;27.80;91.40;;;;;;5088411;28;20122;-55
2021/11/27 04:58:41;;;;;;;7.43;2.72;;;27.80;91.40;;;;;;5088020;28;20021;-48
2021/11/27 05:01:08;;;;;;;6.25;2.45;;;27.80;91.40;;;;;;5086867;28;20028;-44
2021/11/27 05:03:37;;;;;;;7.40;2.55;;;27.80;91.30;;;;;;5086355;28;20335;-54
2021/11/27 05:06:25;;;;;;;3.70;2.50;;;27.70;91.30;;;;;;5087286;28;20033;-51
2021/11/27 05:08:51;;;;;;;7.32;2.67;;;27.70;91.20;;;;;;5087305;28;20252;-52
2021/11/27 05:11:25;;;;;;;6.15;2.63;;;27.70;91.10;;;;;;5087464;28;20009;-49
2021/11/27 05:13:54;;;;;;;5.97;2.88;;;27.70;91.10;;;;;;5087818;28;20057;-51
2021/11/27 05:16:26;;;;;;;8.90;3.95;;;27.70;91.10;;;;;;5086319;28;20100;-53
2021/11/27 05:18:56;;;;;;;8.98;4.40;;;27.70;91.10;;;;;;5070485;28;20024;-49
2021/11/27 05:21:26;;;;;;;8.00;6.13;;;27.70;91.10;;;;;;5087392;28;20020;-52
2021/11/27 05:23:55;;;;;;;8.85;5.85;;;27.70;91.10;;;;;;5086951;28;20024;-45
2021/11/27 05:26:32;;;;;;;9.73;5.00;;;27.60;91.10;;;;;;5086880;28;20028;-47
2021/11/27 05:28:58;;;;;;;9.77;4.78;;;27.70;91.10;;;;;;5087114;28;20016;-47
2021/11/27 05:31:30;;;;;;;7.85;4.63;;;27.60;91.10;;;;;;5087077;28;20066;-46
2021/11/27 05:36:52;;;;;;;9.38;5.70;;;27.60;91.10;;;;;;5067300;28;20115;-49
2021/11/27 05:39:21;;;;;;;14.55;6.95;;;27.70;91.10;;;;;;5067037;28;20021;-45
2021/11/27 05:41:48;;;;;;;8.77;6.47;;;27.70;91.10;;;;;;5066625;28;20096;-47
2021/11/27 05:44:15;;;;;;;15.23;9.15;;;27.60;91.10;;;;;;5066717;28;20058;-46
2021/11/27 05:46:41;;;;;;;16.83;9.75;;;27.60;91.10;;;;;;5066636;28;20048;-47
2021/11/27 05:49:10;;;;;;;14.13;8.73;;;27.60;91.10;;;;;;5066693;28;20021;-51
2021/11/27 05:51:38;;;;;;;13.45;7.93;;;27.60;91.20;;;;;;5065357;28;20035;-50
2021/11/27 05:54:07;;;;;;;12.52;6.90;;;27.60;91.10;;;;;;5066608;28;20461;-50
2021/11/27 05:56:37;;;;;;;14.80;5.65;;;27.60;91.20;;;;;;5066185;28;20025;-49
2021/11/27 05:59:04;;;;;;;9.15;4.97;;;27.50;91.20;;;;;;5066331;28;20016;-51
2021/11/27 06:01:34;;;;;;;9.88;4.22;;;27.50;91.20;;;;;;5066578;28;20032;-47
2021/11/27 06:04:01;;;;;;;6.75;3.95;;;27.50;91.20;;;;;;5066349;28;20017;-45
2021/11/27 06:06:27;;;;;;;6.80;3.80;;;27.50;91.30;;;;;;5066265;28;20071;-45
2021/11/27 06:08:57;;;;;;;5.82;3.63;;;27.50;91.30;;;;;;5067336;28;20013;-49
2021/11/27 06:11:27;;;;;;;8.07;3.22;;;27.50;91.30;;;;;;5086111;28;20027;-50
2021/11/27 06:13:54;;;;;;;9.07;3.13;;;27.50;91.40;;;;;;5086360;28;20024;-49
2021/11/27 06:16:20;;;;;;;6.68;3.00;;;27.50;91.30;;;;;;5086347;28;20036;-47
2021/11/27 06:18:50;;;;;;;7.03;3.30;;;27.50;91.30;;;;;;5086101;28;20245;-49
2021/11/27 06:21:20;;;;;;;4.40;2.85;;;27.40;91.30;;;;;;5086348;28;20020;-52
2021/11/27 06:23:54;;;;;;;8.43;2.80;;;27.40;91.30;;;;;;5086108;28;20312;-54
2021/11/27 06:26:24;;;;;;;4.97;2.60;;;27.40;91.30;;;;;;5086088;28;20036;-49
2021/11/27 06:28:51;;;;;;;4.78;2.60;;;27.40;91.30;;;;;;5085919;28;20009;-48
2021/11/27 06:31:18;;;;;;;6.85;2.95;;;27.40;91.30;;;;;;5085748;28;20016;-47
2021/11/27 06:33:45;;;;;;;5.55;3.00;;;27.40;91.30;;;;;;5085948;28;20089;-49
2021/11/27 06:36:14;;;;;;;6.75;2.80;;;27.40;91.30;;;;;;5085806;28;20063;-45
2021/11/27 06:38:41;;;;;;;5.97;2.92;;;27.40;91.40;;;;;;5085664;28;20024;-50
2021/11/27 06:41:17;;;;;;;6.13;2.90;;;27.30;91.40;;;;;;5086165;28;20298;-50
2021/11/27 06:43:54;;;;;;;11.15;2.97;;;27.30;91.40;;;;;;5085526;28;20331;-52
2021/11/27 06:46:20;;;;;;;5.60;2.30;;;27.40;91.50;;;;;;5085681;28;20041;-51
2021/11/27 06:48:49;;;;;;;6.05;2.88;;;27.30;91.50;;;;;;5085758;28;20021;-52
2021/11/27 06:51:16;;;;;;;4.38;2.67;;;27.30;91.50;;;;;;5085487;28;20083;-49
2021/11/27 06:53:45;;;;;;;6.85;2.92;;;27.30;91.70;;;;;;5085582;28;20032;-49
2021/11/27 06:56:12;;;;;;;6.75;2.50;;;27.30;91.50;;;;;;5085276;28;20051;-46
2021/11/27 06:58:39;;;;;;;5.10;2.70;;;27.30;91.50;;;;;;5084370;28;20047;-45
2021/11/27 07:01:08;;;;;;;5.00;2.95;;;27.30;91.50;;;;;;5085830;28;20028;-55
2021/11/27 07:03:43;;;;;;;7.25;2.67;;;27.30;91.50;;;;;;5085193;28;20313;-51
2021/11/27 07:06:10;;;;;;;4.68;2.50;;;27.30;91.60;;;;;;5085078;28;20316;-58
2021/11/27 07:08:39;;;;;;;5.65;2.90;;;27.20;91.50;;;;;;5083320;28;20209;-51
2021/11/27 07:11:06;;;;;;;5.60;2.50;;;27.20;91.50;;;;;;5085541;28;20024;-49
2021/11/27 07:13:35;;;;;;;3.78;2.40;;;27.20;91.50;;;;;;5084751;28;20085;-45
2021/11/27 07:16:02;;;;;;;5.97;2.75;;;27.20;91.50;;;;;;5085633;28;20099;-50
2021/11/27 07:18:29;;;;;;;5.32;2.70;;;27.20;91.60;;;;;;5084851;28;20024;-45
2021/11/27 07:20:58;;;;;;;4.45;2.40;;;27.20;91.60;;;;;;5085099;28;20034;-44
2021/11/27 07:23:25;;;;;;;4.22;2.80;;;27.20;91.50;;;;;;5084743;28;20317;-46
2021/11/27 07:25:51;;;;;;;5.13;2.75;;;27.20;91.60;;;;;;5085016;28;20281;-46
2021/11/27 07:28:18;;;;;;;7.50;3.15;;;27.20;91.60;;;;;;5084478;28;20031;-47
2021/11/27 07:30:48;;;;;;;6.38;2.83;;;27.20;91.60;;;;;;5085293;28;20044;-51
2021/11/27 07:33:17;;;;;;;8.05;3.15;;;27.10;91.50;;;;;;5084864;28;20054;-49
2021/11/27 07:35:44;;;;;;;6.85;2.90;;;27.10;91.50;;;;;;5084444;28;20394;-49
2021/11/27 07:38:10;;;;;;;7.75;2.42;;;27.10;91.60;;;;;;5084828;28;20029;-49
2021/11/27 07:40:37;;;;;;;5.93;2.60;;;27.10;91.50;;;;;;5084896;28;20079;-46
2021/11/27 07:43:05;;;;;;;4.45;2.70;;;27.10;91.50;;;;;;5084342;28;20031;-47
2021/11/27 07:45:38;;;;;;;8.25;2.83;;;27.10;91.50;;;;;;5084854;28;20048;-43
2021/11/27 07:48:13;;;;;;;7.07;2.65;;;27.10;91.50;;;;;;5084268;28;20021;-50
2021/11/27 07:50:40;;;;;;;7.43;2.75;;;27.10;91.40;;;;;;5085097;28;20074;-51
2021/11/27 07:53:09;;;;;;;8.75;2.75;;;27.00;91.40;;;;;;5084228;28;20066;-45
2021/11/27 07:55:36;;;;;;;7.40;2.80;;;27.00;91.30;;;;;;5084548;28;20028;-46
2021/11/27 07:58:04;;;;;;;5.60;2.55;;;27.00;91.30;;;;;;5084187;28;20025;-53
2021/11/27 08:00:30;;;;;;;5.80;2.58;;;27.00;91.20;;;;;;5084506;28;20095;-52
2021/11/27 08:02:57;;;;;;;5.18;2.65;;;27.00;91.10;;;;;;5084085;28;20047;-56
2021/11/27 08:05:23;;;;;;;5.22;2.60;;;27.00;91.00;;;;;;5084696;28;20101;-49
2021/11/27 08:07:53;;;;;;;5.22;2.55;;;27.00;91.00;;;;;;5084431;28;20261;-51
2021/11/27 08:10:20;;;;;;;7.82;2.55;;;27.00;91.00;;;;;;5084242;28;20079;-55
2021/11/27 08:12:46;;;;;;;6.35;2.60;;;26.90;91.00;;;;;;5084018;28;20043;-54
2021/11/27 08:15:13;;;;;;;3.90;2.40;;;26.90;90.90;;;;;;5084277;28;20047;-46
2021/11/27 08:17:40;;;;;;;6.88;2.53;;;27.00;90.90;;;;;;5083813;28;20028;-52
2021/11/27 08:20:10;;;;;;;9.13;2.65;;;26.90;90.90;;;;;;5083624;28;20034;-50
2021/11/27 08:22:40;;;;;;;4.25;2.40;;;26.90;90.90;;;;;;5083990;28;20033;-47
2021/11/27 08:25:08;;;;;;;7.88;2.33;;;26.90;90.80;;;;;;5083889;28;20020;-50
2021/11/27 08:27:38;;;;;;;4.22;2.60;;;26.90;90.80;;;;;;5082636;28;20331;-52
2021/11/27 08:30:10;;;;;;;4.78;2.33;;;26.90;90.70;;;;;;5084135;28;20035;-57
2021/11/27 08:32:39;;;;;;;;;;;26.90;90.70;;;;;;5084375;28;20059;-53
2021/11/27 08:35:07;;;;;;;7.20;2.20;;;26.90;90.60;;;;;;5084040;28;20221;-47
2021/11/27 08:37:34;;;;;;;7.97;2.22;;;26.90;90.60;;;;;;5083741;28;20066;-51
2021/11/27 08:40:01;;;;;;;6.63;2.42;;;26.90;90.50;;;;;;5084039;28;20281;-46
2021/11/27 08:42:30;;;;;;;8.02;2.50;;;26.80;90.50;;;;;;5083651;28;20040;-49
2021/11/27 08:44:57;;;;;;;3.75;2.25;;;26.80;90.50;;;;;;5083729;28;20024;-50
2021/11/27 08:47:27;;;;;;;6.00;2.67;;;26.80;90.50;;;;;;5083718;28;20029;-47
2021/11/27 08:49:58;;;;;;;9.05;2.55;;;26.80;90.50;;;;;;5083775;28;20017;-47
2021/11/27 08:52:25;;;;;;;3.47;2.10;;;26.80;90.50;;;;;;5083708;28;20024;-51
2021/11/27 08:54:52;;;;;;;3.78;1.98;;;26.80;90.50;;;;;;5083822;28;20024;-45
2021/11/27 08:57:21;;;;;;;4.00;2.10;;;26.80;90.50;;;;;;5083745;28;20146;-53
2021/11/27 08:59:47;;;;;;;5.22;2.20;;;26.80;90.50;;;;;;5083611;28;20025;-53
2021/11/27 09:02:14;;;;;;;4.90;2.15;;;26.80;90.40;;;;;;5083464;28;20074;-49
2021/11/27 09:04:41;;;;;;;5.65;2.15;;;26.80;90.40;;;;;;5083684;28;20073;-51
2021/11/27 09:07:07;;;;;;;4.68;2.28;;;26.80;90.40;;;;;;5083259;28;20026;-52
2021/11/27 09:09:35;;;;;;;5.43;2.05;;;26.70;90.50;;;;;;5083602;28;20074;-50
2021/11/27 09:12:03;;;;;;;6.32;2.35;;;26.70;90.40;;;;;;5083412;28;20029;-42
2021/11/27 09:14:30;;;;;;;4.07;2.03;;;26.70;90.40;;;;;;5083445;28;20023;-47
2021/11/27 09:17:06;;;;;;;4.38;1.88;;;26.70;90.40;;;;;;5083318;28;20055;-49
2021/11/27 09:19:32;;;;;;;8.07;2.70;;;26.60;90.40;;;;;;5083362;28;20095;-48
2021/11/27 09:22:08;;;;;;;5.53;2.30;;;26.70;90.40;;;;;;5083114;28;20085;-47
2021/11/27 09:24:34;;;;;;;4.30;2.47;;;26.70;90.40;;;;;;5083377;28;20025;-47
2021/11/27 09:27:04;;;;;;;8.25;2.55;;;26.70;90.30;;;;;;5083272;28;20088;-48
2021/11/27 09:29:33;;;;;;;4.85;2.55;;;26.70;90.30;;;;;;5083683;28;20066;-53
2021/11/27 09:32:09;;;;;;;7.10;2.80;;;26.70;90.30;;;;;;5082484;28;20261;-53
2021/11/27 09:34:36;;;;;;;7.40;2.42;;;26.60;90.30;;;;;;5086739;28;20020;-57
2021/11/27 09:37:04;;;;;;;4.97;2.42;;;26.70;90.40;;;;;;5086829;28;20025;-51
2021/11/27 09:39:34;;;;;;;6.05;2.17;;;26.60;90.40;;;;;;5087067;28;20060;-52
2021/11/27 09:42:01;;;;;;;7.88;2.40;;;26.60;90.40;;;;;;5086608;28;20016;-46
2021/11/27 09:44:34;;;;;;;5.00;2.40;;;26.60;90.50;;;;;;5086723;28;20024;-53
2021/11/27 09:47:06;;;;;;;3.72;2.13;;;26.70;90.50;;;;;;5086586;28;20301;-48
2021/11/27 09:49:36;;;;;;;3.78;2.10;;;26.60;90.60;;;;;;5086794;28;20056;-53
2021/11/27 09:52:04;;;;;;;10.88;2.50;;;26.60;90.60;;;;;;5086653;28;20031;-53
2021/11/27 09:54:31;;;;;;;7.63;2.38;;;26.60;90.60;;;;;;5086617;28;20073;-51
2021/11/27 09:57:01;;;;;;;6.18;2.40;;;26.60;90.70;;;;;;5086565;28;20020;-47
2021/11/27 09:59:30;;;;;;;7.03;2.55;;;26.60;90.70;;;;;;5086565;28;20024;-50
2021/11/27 10:01:57;;;;;;;6.95;2.55;;;26.60;90.80;;;;;;5086258;28;20246;-55
2021/11/27 10:04:26;;;;;;;6.93;2.75;;;26.60;90.90;;;;;;5086381;28;20028;-51
2021/11/27 10:06:57;;;;;;;12.15;3.53;;;26.50;90.90;;;;;;5086252;28;20070;-44
2021/11/27 10:09:24;;;;;;;5.95;2.60;;;26.60;91.00;;;;;;5086218;28;20048;-46
2021/11/27 10:11:52;;;;;;;4.43;2.80;;;26.50;91.00;;;;;;5086020;28;20079;-48
2021/11/27 10:14:19;;;;;;;7.70;3.17;;;26.50;91.10;;;;;;5086652;28;20024;-55
2021/11/27 10:17:01;;;;;;;6.53;3.78;;;26.50;91.10;;;;;;5086051;28;20013;-54
2021/11/27 10:19:51;;;;;;;9.50;3.60;;;26.50;91.10;;;;;;5086304;28;20020;-52
2021/11/27 10:22:40;;;;;;;7.72;3.60;;;26.50;91.20;;;;;;5086153;28;20035;-52
2021/11/27 10:25:26;;;;;;;6.90;3.83;;;26.50;91.20;;;;;;5086315;28;20039;-54
2021/11/27 10:27:59;;;;;;;8.20;5.10;;;26.50;91.20;;;;;;5086182;28;20017;-46
2021/11/27 10:30:26;;;;;;;7.97;4.50;;;26.50;91.20;;;;;;5086050;28;20028;-51
2021/11/27 10:32:55;;;;;;;7.45;4.38;;;26.40;91.20;;;;;;5086002;28;20036;-45
2021/11/27 10:35:21;;;;;;;7.97;4.55;;;26.50;91.30;;;;;;5085930;28;20044;-55
2021/11/27 10:38:01;;;;;;;8.88;4.45;;;26.50;91.30;;;;;;5073998;28;20024;-46
2021/11/27 10:40:30;;;;;;;11.38;3.90;;;26.40;91.30;;;;;;5086114;28;20039;-49
2021/11/27 10:43:05;;;;;;;9.55;4.25;;;26.40;91.20;;;;;;5081151;28;20036;-48
2021/11/27 10:45:34;;;;;;;9.13;4.38;;;26.40;91.20;;;;;;5085705;28;20030;-52
2021/11/27 10:48:18;;;;;;;10.30;4.20;;;26.40;91.10;;;;;;5085434;28;20043;-46
2021/11/27 10:50:58;;;;;;;9.35;4.07;;;26.40;91.10;;;;;;5085400;28;20025;-48
2021/11/27 10:53:33;;;;;;;6.32;3.40;;;26.50;91.00;;;;;;5085135;28;20119;-46
2021/11/27 10:56:12;;;;;;;6.65;3.33;;;26.40;90.80;;;;;;5085729;28;20036;-52
2021/11/27 10:58:59;;;;;;;9.85;3.58;;;26.40;90.90;;;;;;5085166;28;20107;-46
2021/11/27 11:01:26;;;;;;;6.47;3.38;;;26.40;90.90;;;;;;5085319;28;20321;-50
2021/11/27 11:03:55;;;;;;;8.70;3.20;;;26.40;90.80;;;;;;5083013;28;20274;-51
2021/11/27 11:06:27;;;;;;;8.75;2.75;;;26.40;90.80;;;;;;5084955;28;20028;-50
2021/11/27 11:08:57;;;;;;;4.78;2.78;;;26.40;90.80;;;;;;5084960;28;20063;-54
2021/11/27 11:11:30;;;;;;;5.22;2.65;;;26.30;90.80;;;;;;5084917;28;20024;-54
2021/11/27 11:14:00;;;;;;;9.85;3.28;;;26.30;90.80;;;;;;5084848;28;20013;-45
2021/11/27 11:16:35;;;;;;;6.53;2.90;;;26.30;90.80;;;;;;5084771;28;20028;-48
2021/11/27 11:19:21;;;;;;;9.05;3.22;;;26.30;90.80;;;;;;5084751;28;20027;-46
2021/11/27 11:22:16;;;;;;;4.13;2.92;;;26.40;90.80;;;;;;5084638;28;20216;-47
2021/11/27 11:24:57;;;;;;;;;;;;;;;;;;;;;
2021/11/27 11:27:45;;;;;;;7.88;3.20;;;26.40;91.00;;;;;;5084581;28;20090;-51
2021/11/27 11:30:15;;;;;;;10.25;3.95;;;26.40;91.00;;;;;;5084697;28;20024;-48
2021/11/27 11:32:44;;;;;;;4.82;3.13;;;26.40;91.00;;;;;;5084630;28;20020;-53
2021/11/27 11:35:14;;;;;;;9.30;3.63;;;26.50;90.90;;;;;;5084353;28;20197;-57
2021/11/27 11:37:41;;;;;;;10.65;4.15;;;26.40;90.90;;;;;;5084350;28;20076;-47
2021/11/27 11:40:08;;;;;;;9.20;4.43;;;26.40;91.00;;;;;;5084754;28;20182;-51
2021/11/27 11:42:35;;;;;;;11.35;4.93;;;26.40;90.90;;;;;;5084448;28;20210;-59
2021/11/27 11:45:11;;;;;;;14.63;4.53;;;26.50;91.00;;;;;;5084347;28;20025;-50
2021/11/27 11:47:37;;;;;;;10.15;3.67;;;26.50;91.20;;;;;;5084429;28;20016;-46
2021/11/27 11:50:08;;;;;;;11.57;3.83;;;26.50;90.90;;;;;;5084440;28;20200;-49
2021/11/27 11:53:00;;;;;;;;;;;;;;;;;;;;;
2021/11/27 11:55:27;;;;;;;8.80;3.57;;;26.50;90.70;;;;;;5083989;28;20055;-54
2021/11/27 11:58:01;;;;;;;4.53;3.50;;;26.50;90.70;;;;;;5083355;28;20066;-46
2021/11/27 12:00:28;;;;;;;6.03;3.50;;;26.60;90.80;;;;;;5083179;28;20031;-49
2021/11/27 12:03:09;;;;;;;3.47;2.78;;;26.60;90.90;;;;;;5084046;28;20021;-47
2021/11/27 12:05:58;;;;;;;9.07;3.42;;;26.60;90.90;;;;;;5084361;28;20035;-52
2021/11/27 12:09:04;;;;;;;7.57;3.10;;;26.60;90.80;;;;;;5084020;28;20111;-54
2021/11/27 12:11:39;;;;;;;5.47;3.33;;;26.60;90.80;;;;;;5002966;28;20027;-48
2021/11/27 12:14:38;;;;;;;7.70;3.28;;;26.60;90.90;;;;;;5002781;28;20026;-54
2021/11/27 12:17:23;;;;;;;7.55;3.58;;;26.70;90.90;;;;;;5032910;28;20035;-46
2021/11/27 12:19:57;;;;;;;8.00;3.55;;;26.70;90.80;;;;;;5084041;28;20087;-55
2021/11/27 12:22:27;;;;;;;8.43;4.00;;;26.70;90.90;;;;;;5083879;28;20055;-49
2021/11/27 12:25:26;;;;;;;5.80;3.63;;;26.70;90.90;;;;;;5083755;28;20032;-52
2021/11/27 12:28:08;;;;;;;6.22;3.72;;;26.80;90.90;;;;;;5083897;28;20087;-51
2021/11/27 12:30:44;;;;;;;7.50;3.90;;;26.80;91.00;;;;;;5084348;28;20021;-53
2021/11/27 12:33:47;;;;;;;7.60;3.20;;;26.80;91.00;;;;;;5083852;28;20332;-50
2021/11/27 12:36:29;;;;;;;7.45;3.55;;;26.80;91.00;;;;;;5083633;28;20056;-54
2021/11/27 12:39:18;;;;;;;4.40;3.25;;;26.90;91.00;;;;;;5083876;28;20190;-54
2021/11/27 12:41:58;;;;;;;7.78;3.03;;;26.90;91.00;;;;;;5083659;28;20069;-51
2021/11/27 12:44:42;;;;;;;9.57;2.63;;;26.90;91.00;;;;;;5083360;28;20028;-57
2021/11/27 12:47:23;;;;;;;6.18;3.22;;;26.90;91.00;;;;;;5083443;28;20043;-53
2021/11/27 12:49:53;;;;;;;7.05;3.00;;;27.00;91.10;;;;;;5084041;28;20012;-56
2021/11/27 12:52:28;;;;;;;3.92;2.83;;;27.00;91.10;;;;;;5083528;28;20021;-54
2021/11/27 12:55:10;;;;;;;12.25;2.80;;;27.00;91.10;;;;;;5083956;28;20048;-52
2021/11/27 12:57:38;;;;;;;5.45;2.53;;;27.10;91.10;;;;;;5083477;28;20082;-52
2021/11/27 13:00:18;;;;;;;5.68;2.70;;;27.10;91.00;;;;;;5083869;28;20212;-46
2021/11/27 13:02:58;;;;;;;4.50;2.45;;;27.20;91.00;;;;;;5083675;28;20050;-51
2021/11/27 13:05:33;;;;;;;5.63;2.55;;;27.20;90.90;;;;;;5084148;28;20074;-51
2021/11/27 13:08:05;;;;;;;4.57;2.53;;;27.20;90.80;;;;;;5085694;28;20328;-47
2021/11/27 13:10:41;;;;;;;2.97;2.47;;;27.30;90.90;;;;;;5086470;28;20032;-51